Time;durP1;ratioP1;P1;durP2;ratioP2;P2;SDS_P1;SDS_P2;PMS_P1;PMS_P2;Temp;Humidity;BMP_temperature;BMP_pressure;BME280_temperature;BME280_humidity;BME280_pressure;Samples;Min_cycle;Max_cycle;Signal;HPM_P1;HPM_P2
2022/08/21 00:01:10;;;;;;;15.30;9.00;;;21.80;99.90;;;;;;4593278;19;20355;-30
2022/08/21 00:03:01;;;;;;;13.52;7.85;;;21.80;99.90;;;;;;4593149;19;20067;-30
2022/08/21 00:04:32;;;;;;;13.52;7.80;;;21.90;99.90;;;;;;4591777;19;20091;-30
2022/08/21 00:06:03;;;;;;;12.18;8.13;;;21.80;99.90;;;;;;4593782;19;20487;-30
2022/08/21 00:07:34;;;;;;;13.05;7.93;;;21.80;99.90;;;;;;4593112;19;20062;-31
2022/08/21 00:09:06;;;;;;;10.98;7.10;;;21.80;99.90;;;;;;4593156;19;20079;-29
2022/08/21 00:10:39;;;;;;;11.68;7.75;;;21.80;99.90;;;;;;4591977;19;20436;-29
2022/08/21 00:12:10;;;;;;;10.48;7.65;;;21.80;99.90;;;;;;4592051;19;20499;-30
2022/08/21 00:13:41;;;;;;;13.32;7.28;;;21.80;99.90;;;;;;4591990;19;20044;-30
2022/08/21 00:15:19;;;;;;;10.68;7.65;;;21.80;99.90;;;;;;4592578;19;20037;-30
2022/08/21 00:16:50;;;;;;;14.65;7.22;;;21.80;99.90;;;;;;4592864;19;20015;-32
2022/08/21 00:18:21;;;;;;;11.07;7.78;;;21.80;99.90;;;;;;4593250;19;20017;-30
2022/08/21 00:19:53;;;;;;;12.00;8.32;;;21.80;99.90;;;;;;4592915;19;20019;-30
2022/08/21 00:21:25;;;;;;;11.88;7.85;;;21.80;99.90;;;;;;4592324;19;20007;-30
2022/08/21 00:22:56;;;;;;;12.82;8.73;;;21.80;99.90;;;;;;4593146;19;20385;-30
2022/08/21 00:24:27;;;;;;;13.00;7.95;;;21.80;99.90;;;;;;4593518;19;20018;-30
2022/08/21 00:25:58;;;;;;;11.57;7.85;;;21.80;99.90;;;;;;4591853;19;20018;-30
2022/08/21 00:27:30;;;;;;;13.80;7.78;;;21.80;99.90;;;;;;4592200;19;20018;-32
2022/08/21 00:29:01;;;;;;;13.38;8.23;;;21.80;99.90;;;;;;4593404;19;20006;-30
2022/08/21 00:30:33;;;;;;;13.00;8.10;;;21.80;99.90;;;;;;4591457;19;20014;-30
2022/08/21 00:32:04;;;;;;;11.73;7.70;;;21.80;99.90;;;;;;4591590;19;20018;-30
2022/08/21 00:33:35;;;;;;;11.00;8.05;;;21.80;99.90;;;;;;4592540;19;20014;-30
2022/08/21 00:35:08;;;;;;;12.32;7.72;;;21.80;99.90;;;;;;4593326;19;20333;-30
2022/08/21 00:36:39;;;;;;;12.38;7.38;;;21.80;99.90;;;;;;4591404;19;20501;-32
2022/08/21 00:38:10;;;;;;;11.45;8.25;;;21.80;99.90;;;;;;4591485;19;20014;-32
2022/08/21 00:39:41;;;;;;;11.07;8.43;;;21.80;99.90;;;;;;4592096;19;20019;-30
2022/08/21 00:41:12;;;;;;;12.13;8.48;;;21.80;99.90;;;;;;4593147;19;20014;-30
2022/08/21 00:42:44;;;;;;;12.43;8.15;;;21.80;99.90;;;;;;4591237;19;20018;-32
2022/08/21 00:44:15;;;;;;;11.82;7.55;;;21.80;99.90;;;;;;4591785;19;20044;-30
2022/08/21 00:45:46;;;;;;;12.52;8.35;;;21.80;99.90;;;;;;4590804;19;20010;-30
2022/08/21 00:47:18;;;;;;;11.93;8.57;;;21.80;99.90;;;;;;4592214;19;20015;-30
2022/08/21 00:48:50;;;;;;;15.35;8.50;;;21.80;99.90;;;;;;4591314;19;20022;-30
2022/08/21 00:50:21;;;;;;;16.35;9.25;;;21.80;99.90;;;;;;4591902;19;20070;-30
2022/08/21 00:51:53;;;;;;;;;;;21.80;99.90;;;;;;4593845;19;19999;-30
2022/08/21 00:53:25;;;;;;;10.27;8.60;;;21.80;99.90;;;;;;4590922;19;19929;-30
2022/08/21 00:54:56;;;;;;;15.38;8.95;;;21.80;99.90;;;;;;4589871;19;20010;-30
2022/08/21 00:56:27;;;;;;;14.20;9.20;;;21.80;99.90;;;;;;4591347;19;20456;-30
2022/08/21 00:57:58;;;;;;;18.20;9.40;;;21.80;99.90;;;;;;4591755;19;20005;-30
2022/08/21 00:59:30;;;;;;;13.93;9.02;;;21.80;99.90;;;;;;4590977;19;20411;-32
2022/08/21 01:01:01;;;;;;;16.38;9.93;;;21.80;99.90;;;;;;4590886;19;20010;-32
2022/08/21 01:02:33;;;;;;;13.70;9.35;;;21.80;99.90;;;;;;4591294;19;20014;-32
2022/08/21 01:04:04;;;;;;;10.55;9.13;;;21.80;99.90;;;;;;4592160;19;20017;-30
2022/08/21 01:05:35;;;;;;;13.73;10.07;;;21.80;99.90;;;;;;4590863;19;20030;-30
2022/08/21 01:07:06;;;;;;;14.77;9.63;;;21.80;99.90;;;;;;4592276;19;20066;-30
2022/08/21 01:08:37;;;;;;;12.82;8.98;;;21.70;99.90;;;;;;4592311;19;20351;-32
2022/08/21 01:10:09;;;;;;;12.70;8.90;;;21.70;99.90;;;;;;4591683;19;20018;-30
2022/08/21 01:11:42;;;;;;;;;;;21.70;99.90;;;;;;4593040;19;20024;-31
2022/08/21 01:13:14;;;;;;;13.07;9.05;;;21.70;99.90;;;;;;4590716;19;19989;-30
2022/08/21 01:14:45;;;;;;;15.68;8.88;;;21.70;99.90;;;;;;4591161;19;20006;-30
2022/08/21 01:16:17;;;;;;;15.15;10.32;;;21.70;99.90;;;;;;4590667;19;20007;-30
2022/08/21 01:17:48;;;;;;;12.93;9.65;;;21.80;99.90;;;;;;4590761;19;20010;-30
2022/08/21 01:19:20;;;;;;;15.82;10.18;;;21.70;99.90;;;;;;4590679;19;20003;-30
2022/08/21 01:21:00;;;;;;;;;;;21.70;99.90;;;;;;4591621;19;20014;-30
2022/08/21 01:22:31;;;;;;;14.00;9.43;;;21.70;99.90;;;;;;4591402;19;20356;-31
2022/08/21 01:24:03;;;;;;;17.00;10.90;;;21.70;99.90;;;;;;4591598;19;20018;-29
2022/08/21 01:25:34;;;;;;;13.88;10.57;;;21.70;99.90;;;;;;4590875;19;20017;-30
2022/08/21 01:27:05;;;;;;;15.32;10.25;;;21.70;99.90;;;;;;4590859;19;20003;-31
2022/08/21 01:29:05;;;;;;;14.27;10.55;;;21.70;99.90;;;;;;4591434;19;20092;-30
2022/08/21 01:30:36;;;;;;;12.77;9.65;;;21.70;99.90;;;;;;4590511;19;20014;-30
2022/08/21 01:32:10;;;;;;;13.60;10.10;;;21.70;99.90;;;;;;4590591;19;20070;-30
2022/08/21 01:33:41;;;;;;;15.55;10.65;;;21.70;99.90;;;;;;4590740;19;20038;-30
2022/08/21 01:35:13;;;;;;;13.27;10.40;;;21.70;99.90;;;;;;4590256;19;20010;-29
2022/08/21 01:36:45;;;;;;;18.33;11.68;;;21.70;99.90;;;;;;4590153;19;20352;-30
2022/08/21 01:38:16;;;;;;;15.18;11.18;;;21.70;99.90;;;;;;4590193;19;20365;-30
2022/08/21 01:39:47;;;;;;;16.77;11.57;;;21.70;99.90;;;;;;4591054;19;20002;-30
2022/08/21 01:41:18;;;;;;;19.85;11.73;;;21.70;99.90;;;;;;4590065;19;20003;-31
2022/08/21 01:42:49;;;;;;;15.18;10.48;;;21.70;99.90;;;;;;4590664;19;20116;-30
2022/08/21 01:44:22;;;;;;;16.35;11.93;;;21.70;99.90;;;;;;4588912;19;20010;-30
2022/08/21 01:45:53;;;;;;;14.10;11.15;;;21.70;99.90;;;;;;4587836;19;20451;-30
2022/08/21 01:47:24;;;;;;;15.30;11.55;;;21.70;99.90;;;;;;4588904;19;20496;-30
2022/08/21 01:48:55;;;;;;;15.15;11.45;;;21.70;99.90;;;;;;4589135;19;20584;-30
2022/08/21 01:50:26;;;;;;;15.55;11.60;;;21.70;99.90;;;;;;4589400;19;20006;-32
2022/08/21 01:51:57;;;;;;;15.40;11.88;;;21.70;99.90;;;;;;4589724;19;20326;-31
2022/08/21 01:53:28;;;;;;;19.38;12.27;;;21.70;99.90;;;;;;4588945;19;20456;-30
2022/08/21 01:55:00;;;;;;;14.55;11.30;;;21.70;99.90;;;;;;4586993;19;20018;-32
2022/08/21 01:56:36;;;;;;;15.80;12.93;;;21.70;99.90;;;;;;4588646;19;20010;-30
2022/08/21 01:58:07;;;;;;;18.15;12.98;;;21.70;99.90;;;;;;4588576;19;20018;-30
2022/08/21 01:59:39;;;;;;;17.52;12.10;;;21.70;99.90;;;;;;4588897;19;20015;-30
2022/08/21 02:01:10;;;;;;;16.80;12.05;;;21.70;99.90;;;;;;4588946;19;20018;-30
2022/08/21 02:02:41;;;;;;;17.55;12.23;;;21.70;99.90;;;;;;4589508;19;20013;-32
2022/08/21 02:04:12;;;;;;;17.85;12.43;;;21.70;99.90;;;;;;4588576;19;20006;-30
2022/08/21 02:05:43;;;;;;;19.27;14.02;;;21.70;99.90;;;;;;4587485;19;20463;-30
2022/08/21 02:07:15;;;;;;;16.33;11.90;;;21.70;99.90;;;;;;4588918;19;20021;-30
2022/08/21 02:08:46;;;;;;;20.38;12.73;;;21.70;99.90;;;;;;4589133;19;19999;-30
2022/08/21 02:10:26;;;;;;;18.50;12.70;;;21.70;99.90;;;;;;4588532;19;20014;-32
2022/08/21 02:11:57;;;;;;;15.88;12.15;;;21.70;99.90;;;;;;4588928;19;20107;-32
2022/08/21 02:13:28;;;;;;;14.30;12.25;;;21.70;99.90;;;;;;4588329;19;20014;-30
2022/08/21 02:15:00;;;;;;;18.15;13.10;;;21.70;99.90;;;;;;4589035;19;20007;-31
2022/08/21 02:16:31;;;;;;;17.67;13.15;;;21.70;99.90;;;;;;4589198;19;20015;-30
2022/08/21 02:18:02;;;;;;;22.30;12.77;;;21.70;99.90;;;;;;4590004;19;20018;-30
2022/08/21 02:19:34;;;;;;;16.60;13.13;;;21.70;99.90;;;;;;4589430;19;20348;-30
2022/08/21 02:21:05;;;;;;;15.40;12.55;;;21.70;99.90;;;;;;4590109;19;20078;-30
2022/08/21 02:22:36;;;;;;;17.00;14.18;;;21.70;99.90;;;;;;4589563;19;20079;-30
2022/08/21 02:24:07;;;;;;;20.52;14.23;;;21.70;99.90;;;;;;4589360;19;20525;-30
2022/08/21 02:25:39;;;;;;;19.60;15.57;;;21.70;99.90;;;;;;4589699;19;20013;-32
2022/08/21 02:27:10;;;;;;;22.27;13.93;;;21.70;99.90;;;;;;4589141;19;20023;-30
2022/08/21 02:28:42;;;;;;;16.33;12.20;;;21.70;99.90;;;;;;4589892;19;20337;-30
2022/08/21 02:30:19;;;;;;;16.05;12.38;;;21.70;99.90;;;;;;4589018;19;20352;-29
2022/08/21 02:31:51;;;;;;;15.63;11.95;;;21.70;99.90;;;;;;4590005;19;20002;-30
2022/08/21 02:33:22;;;;;;;20.48;12.20;;;21.70;99.90;;;;;;4590049;19;20010;-32
2022/08/21 02:34:54;;;;;;;16.23;12.45;;;21.70;99.90;;;;;;4589200;19;20010;-31
2022/08/21 02:36:25;;;;;;;18.13;12.88;;;21.70;99.90;;;;;;4590230;19;20070;-30
2022/08/21 02:38:00;;;;;;;15.82;13.60;;;21.70;99.90;;;;;;4590826;19;20012;-30
2022/08/21 02:39:31;;;;;;;13.82;12.13;;;21.70;99.90;;;;;;4590103;19;20034;-31
2022/08/21 02:41:03;;;;;;;19.50;13.27;;;21.70;99.90;;;;;;4590153;19;20010;-30
2022/08/21 02:42:34;;;;;;;18.30;12.43;;;21.70;99.90;;;;;;4590565;19;20002;-30
2022/08/21 02:44:05;;;;;;;16.88;12.60;;;21.70;99.90;;;;;;4590791;19;20010;-30
2022/08/21 02:45:36;;;;;;;16.23;13.68;;;21.70;99.90;;;;;;4589041;19;20014;-30
2022/08/21 02:47:07;;;;;;;;;;;21.70;99.90;;;;;;4591388;19;20093;-30
2022/08/21 02:48:39;;;;;;;15.77;12.10;;;21.60;99.90;;;;;;4590977;19;19915;-29
2022/08/21 02:50:11;;;;;;;18.52;12.13;;;21.70;99.90;;;;;;4589886;19;20011;-31
2022/08/21 02:51:42;;;;;;;16.58;12.50;;;21.70;99.90;;;;;;4590250;19;20464;-30
2022/08/21 02:53:16;;;;;;;19.65;12.77;;;21.70;99.90;;;;;;4590631;19;20020;-32
2022/08/21 02:54:47;;;;;;;15.85;12.35;;;21.60;99.90;;;;;;4590209;19;20472;-30
2022/08/21 02:56:19;;;;;;;;;;;21.60;99.90;;;;;;4590663;19;20014;-32
2022/08/21 02:57:50;;;;;;;18.05;12.70;;;21.70;99.90;;;;;;4589916;19;20315;-32
2022/08/21 02:59:21;;;;;;;18.20;13.23;;;21.70;99.90;;;;;;4590002;19;20010;-30
2022/08/21 03:00:52;;;;;;;17.85;12.10;;;21.60;99.90;;;;;;4590731;19;20074;-32
2022/08/21 03:02:24;;;;;;;15.90;11.68;;;21.60;99.90;;;;;;4588695;19;20040;-30
2022/08/21 03:03:55;;;;;;;17.67;13.93;;;21.60;99.90;;;;;;4589322;19;20006;-30
2022/08/21 03:05:27;;;;;;;18.08;12.40;;;21.60;99.90;;;;;;4589525;19;20070;-30
2022/08/21 03:06:58;;;;;;;15.73;11.80;;;21.60;99.90;;;;;;4592855;19;20025;-31
2022/08/21 03:08:30;;;;;;;14.90;12.02;;;21.60;99.90;;;;;;4593355;19;20039;-29
2022/08/21 03:10:01;;;;;;;15.50;12.63;;;21.60;99.90;;;;;;4594501;19;20329;-30
2022/08/21 03:11:32;;;;;;;14.70;12.73;;;21.60;99.90;;;;;;4594781;19;20471;-30
2022/08/21 03:13:04;;;;;;;16.42;13.00;;;21.60;99.90;;;;;;4593121;19;20014;-30
2022/08/21 03:14:35;;;;;;;18.98;12.95;;;21.60;99.90;;;;;;4593896;19;20345;-32
2022/08/21 03:16:06;;;;;;;14.80;12.20;;;21.60;99.90;;;;;;4594985;19;20007;-30
2022/08/21 03:17:37;;;;;;;16.25;12.60;;;21.60;99.90;;;;;;4594913;19;20014;-30
2022/08/21 03:19:08;;;;;;;17.83;13.15;;;21.60;99.90;;;;;;4594297;19;20039;-30
2022/08/21 03:20:41;;;;;;;17.67;13.02;;;21.60;99.90;;;;;;4594134;19;20019;-30
2022/08/21 03:22:12;;;;;;;19.83;12.80;;;21.60;99.90;;;;;;4594359;19;20014;-30
2022/08/21 03:23:43;;;;;;;18.63;12.68;;;21.60;99.90;;;;;;4595062;19;20034;-31
2022/08/21 03:25:14;;;;;;;17.67;12.57;;;21.60;99.90;;;;;;4592889;19;20018;-30
2022/08/21 03:26:45;;;;;;;20.52;14.15;;;21.60;99.90;;;;;;4594387;19;20014;-30
2022/08/21 03:28:18;;;;;;;18.17;12.40;;;21.60;99.90;;;;;;4594324;19;20397;-30
2022/08/21 03:29:49;;;;;;;16.25;13.85;;;21.60;99.90;;;;;;4594272;19;20014;-31
2022/08/21 03:31:21;;;;;;;19.05;12.20;;;21.60;99.90;;;;;;4593914;19;20414;-29
2022/08/21 03:32:52;;;;;;;16.05;11.98;;;21.60;99.90;;;;;;4593973;19;20039;-31
2022/08/21 03:34:24;;;;;;;24.25;13.73;;;21.60;99.90;;;;;;4594108;19;20393;-30
2022/08/21 03:36:00;;;;;;;15.48;12.15;;;21.60;99.90;;;;;;4592535;19;20018;-31
2022/08/21 03:37:32;;;;;;;15.55;13.38;;;21.60;99.90;;;;;;4592810;19;20011;-30
2022/08/21 03:39:03;;;;;;;17.00;12.90;;;21.60;99.90;;;;;;4593373;19;20035;-29
2022/08/21 03:40:34;;;;;;;15.48;13.15;;;21.60;99.90;;;;;;4594098;19;20097;-32
2022/08/21 03:42:06;;;;;;;16.92;12.77;;;21.60;99.90;;;;;;4593503;19;20472;-32
2022/08/21 03:43:38;;;;;;;17.05;13.38;;;21.60;99.90;;;;;;4593685;19;20018;-30
2022/08/21 03:45:09;;;;;;;15.00;13.35;;;21.60;99.90;;;;;;4593117;19;20507;-30
2022/08/21 03:46:41;;;;;;;20.45;13.65;;;21.60;99.90;;;;;;4592288;19;20486;-30
2022/08/21 03:48:12;;;;;;;20.33;15.20;;;21.60;99.90;;;;;;4593655;19;20013;-30
2022/08/21 03:49:43;;;;;;;21.27;14.52;;;21.60;99.90;;;;;;4593996;19;20010;-30
2022/08/21 03:51:14;;;;;;;16.33;13.38;;;21.60;99.90;;;;;;4594435;19;20002;-33
2022/08/21 03:52:45;;;;;;;17.23;13.10;;;21.60;99.90;;;;;;4593392;19;20081;-30
2022/08/21 03:54:16;;;;;;;16.65;12.07;;;21.80;99.90;;;;;;4593671;19;20483;-31
2022/08/21 03:55:49;;;;;;;13.70;11.73;;;22.00;99.90;;;;;;4593976;19;20476;-30
2022/08/21 03:57:21;;;;;;;13.73;11.48;;;22.10;99.90;;;;;;4592448;19;20426;-31
2022/08/21 03:58:52;;;;;;;13.60;10.50;;;22.30;99.90;;;;;;4590777;19;20018;-31
2022/08/21 04:00:23;;;;;;;11.77;10.27;;;22.50;99.90;;;;;;4590558;19;20022;-30
2022/08/21 04:01:55;;;;;;;;;;;22.60;99.90;;;;;;4593141;19;20026;-29
2022/08/21 04:03:27;;;;;;;13.57;10.68;;;22.70;99.90;;;;;;4593284;19;20387;-29
2022/08/21 04:04:58;;;;;;;;;;;22.80;99.90;;;;;;4591958;19;20082;-29
2022/08/21 04:06:29;;;;;;;13.07;9.50;;;22.90;99.90;;;;;;4591931;19;20332;-32
2022/08/21 04:08:01;;;;;;;10.98;9.40;;;22.90;99.90;;;;;;4591333;19;20356;-31
2022/08/21 04:09:33;;;;;;;12.88;9.35;;;23.00;99.90;;;;;;4590912;19;20015;-29
2022/08/21 04:11:04;;;;;;;10.85;9.70;;;23.00;99.90;;;;;;4593268;19;20030;-28
2022/08/21 04:12:35;;;;;;;10.10;8.88;;;23.10;99.90;;;;;;4591030;19;20392;-29
2022/08/21 04:14:06;;;;;;;10.27;9.18;;;23.10;99.90;;;;;;4592392;19;20034;-29
2022/08/21 04:15:38;;;;;;;11.43;8.88;;;23.10;99.90;;;;;;4592323;19;20011;-29
2022/08/21 04:17:09;;;;;;;13.48;9.18;;;23.20;99.90;;;;;;4590780;19;20081;-28
2022/08/21 04:18:40;;;;;;;10.98;8.32;;;23.20;99.90;;;;;;4590694;19;20127;-29
2022/08/21 04:20:12;;;;;;;11.30;8.20;;;23.30;99.90;;;;;;4592441;19;20466;-29
2022/08/21 04:21:43;;;;;;;14.45;8.85;;;23.30;99.90;;;;;;4591489;19;20019;-31
2022/08/21 04:23:14;;;;;;;12.65;8.70;;;23.30;99.90;;;;;;4591355;19;20463;-31
2022/08/21 04:24:45;;;;;;;10.05;8.32;;;23.30;99.90;;;;;;4591171;19;20011;-32
2022/08/21 04:26:16;;;;;;;9.52;8.02;;;23.30;99.90;;;;;;4591203;19;20467;-29
2022/08/21 04:27:48;;;;;;;10.40;8.57;;;23.40;99.90;;;;;;4591202;19;20440;-29
2022/08/21 04:29:19;;;;;;;8.95;8.02;;;23.40;99.90;;;;;;4591816;19;20082;-29
2022/08/21 04:30:51;;;;;;;9.18;8.18;;;23.40;99.90;;;;;;4591790;19;20010;-29
2022/08/21 04:32:25;;;;;;;8.63;7.03;;;23.40;99.90;;;;;;4591021;19;20031;-29
2022/08/21 04:33:57;;;;;;;9.38;7.82;;;23.40;99.90;;;;;;4590671;19;20586;-29
2022/08/21 04:35:28;;;;;;;9.63;8.45;;;23.40;99.90;;;;;;4592323;19;20475;-29
2022/08/21 04:36:59;;;;;;;;;;;23.40;99.90;;;;;;4592403;19;20384;-31
2022/08/21 04:38:31;;;;;;;11.07;8.43;;;23.50;99.90;;;;;;4592158;19;19910;-29
2022/08/21 04:40:04;;;;;;;9.82;8.40;;;23.40;99.90;;;;;;4590957;19;20468;-29
2022/08/21 04:41:36;;;;;;;10.90;8.05;;;23.50;99.90;;;;;;4591027;19;20006;-29
2022/08/21 04:43:11;;;;;;;11.57;8.05;;;23.50;99.90;;;;;;4591878;19;20022;-30
2022/08/21 04:44:42;;;;;;;9.55;7.88;;;23.50;99.90;;;;;;4590488;19;20025;-31
2022/08/21 04:46:14;;;;;;;9.52;8.50;;;23.50;99.90;;;;;;4589321;19;20034;-29
2022/08/21 04:47:45;;;;;;;9.60;8.35;;;23.50;99.90;;;;;;4590970;19;20492;-29
2022/08/21 04:49:16;;;;;;;8.65;7.82;;;23.50;99.90;;;;;;4592216;19;20464;-29
2022/08/21 04:50:49;;;;;;;11.63;8.63;;;23.50;99.90;;;;;;4591274;19;20022;-30
2022/08/21 04:52:22;;;;;;;9.95;7.05;;;23.50;99.90;;;;;;4591450;19;20018;-30
2022/08/21 04:53:56;;;;;;;10.88;8.32;;;23.60;99.90;;;;;;4592444;19;20358;-30
2022/08/21 04:55:27;;;;;;;9.77;7.60;;;23.60;99.90;;;;;;4593615;19;20070;-29
2022/08/21 04:57:05;;;;;;;10.52;7.97;;;23.60;99.90;;;;;;4591586;19;20358;-32
2022/08/21 04:58:37;;;;;;;10.10;8.35;;;23.60;99.90;;;;;;4590710;19;20774;-32
2022/08/21 05:00:10;;;;;;;9.80;8.55;;;23.60;99.90;;;;;;4592039;19;20052;-30
2022/08/21 05:01:41;;;;;;;9.18;7.38;;;23.60;99.90;;;;;;4593216;19;20014;-29
2022/08/21 05:03:12;;;;;;;8.38;7.30;;;23.60;99.90;;;;;;4590784;19;20014;-30
2022/08/21 05:04:46;;;;;;;9.13;8.23;;;23.60;99.90;;;;;;4591029;19;20024;-30
2022/08/21 05:06:17;;;;;;;10.35;8.57;;;23.70;99.90;;;;;;4591460;19;20015;-29
2022/08/21 05:07:49;;;;;;;9.70;8.20;;;23.70;99.90;;;;;;4591259;19;20564;-30
2022/08/21 05:09:20;;;;;;;8.70;7.85;;;23.70;99.90;;;;;;4590899;19;20014;-29
2022/08/21 05:10:52;;;;;;;10.25;8.00;;;23.70;99.90;;;;;;4591525;19;20006;-30
2022/08/21 05:12:23;;;;;;;;;;;23.70;99.90;;;;;;4591486;19;20034;-30
2022/08/21 05:13:54;;;;;;;8.77;7.87;;;23.70;99.90;;;;;;4591670;19;19950;-30
2022/08/21 05:15:25;;;;;;;9.88;8.82;;;23.70;99.90;;;;;;4592586;19;20461;-32
2022/08/21 05:16:57;;;;;;;9.20;8.27;;;23.70;99.90;;;;;;4592092;19;20014;-30
2022/08/21 05:18:28;;;;;;;9.90;8.15;;;23.70;99.90;;;;;;4592425;19;20010;-30
2022/08/21 05:19:59;;;;;;;10.00;8.75;;;23.70;99.90;;;;;;4590508;19;20014;-30
2022/08/21 05:21:30;;;;;;;11.80;9.90;;;23.70;99.90;;;;;;4590586;19;20006;-30
2022/08/21 05:23:01;;;;;;;10.32;8.20;;;23.70;99.90;;;;;;4591316;19;20350;-29
2022/08/21 05:24:33;;;;;;;10.93;7.70;;;23.70;99.90;;;;;;4590467;19;20345;-31
2022/08/21 05:26:04;;;;;;;13.18;8.75;;;23.70;99.90;;;;;;4590806;19;20464;-29
2022/08/21 05:27:35;;;;;;;9.23;8.20;;;23.70;99.90;;;;;;4592834;19;20018;-30
2022/08/21 05:29:06;;;;;;;10.00;9.00;;;23.70;99.90;;;;;;4588920;19;20010;-31
2022/08/21 05:30:38;;;;;;;11.05;8.75;;;23.70;99.90;;;;;;4589594;19;20017;-31
2022/08/21 05:32:10;;;;;;;10.07;8.88;;;23.70;99.90;;;;;;4591304;19;20017;-30
2022/08/21 05:33:41;;;;;;;11.02;8.57;;;23.80;99.90;;;;;;4591349;19;20013;-31
2022/08/21 05:35:13;;;;;;;12.10;9.18;;;23.80;99.90;;;;;;4591258;19;20375;-31
2022/08/21 05:36:44;;;;;;;10.15;8.35;;;23.80;99.90;;;;;;4590632;19;20586;-32
2022/08/21 05:38:15;;;;;;;10.25;8.93;;;23.80;99.90;;;;;;4590978;19;20007;-30
2022/08/21 05:39:46;;;;;;;11.80;8.88;;;23.80;99.90;;;;;;4591805;19;20013;-30
2022/08/21 05:41:17;;;;;;;;;;;23.80;99.90;;;;;;4592608;19;20016;-30
2022/08/21 05:42:53;;;;;;;10.25;9.18;;;23.80;99.90;;;;;;4591429;19;19929;-30
2022/08/21 05:44:24;;;;;;;10.32;8.63;;;23.80;99.90;;;;;;4590534;19;20026;-32
2022/08/21 05:45:55;;;;;;;11.00;9.68;;;23.80;99.90;;;;;;4589407;19;20464;-29
2022/08/21 05:47:27;;;;;;;;;;;23.90;99.90;;;;;;4591944;19;20363;-29
2022/08/21 05:48:58;;;;;;;35.70;15.07;;;23.90;99.90;;;;;;4589455;19;19914;-31
2022/08/21 05:50:29;;;;;;;45.72;18.15;;;24.10;99.90;;;;;;4588746;19;20038;-30
2022/08/21 05:52:00;;;;;;;106.10;31.83;;;24.20;99.90;;;;;;4588541;19;20058;-30
2022/08/21 05:53:31;;;;;;;62.90;22.05;;;24.40;99.90;;;;;;4590517;19;20011;-30
2022/08/21 05:55:03;;;;;;;55.20;19.83;;;24.50;99.90;;;;;;4590177;19;20027;-29
2022/08/21 05:56:34;;;;;;;104.55;33.00;;;24.50;99.90;;;;;;4590456;19;20025;-29
2022/08/21 05:58:05;;;;;;;114.70;34.75;;;24.60;99.90;;;;;;4589428;19;20331;-30
2022/08/21 05:59:37;;;;;;;103.25;31.70;;;24.60;99.90;;;;;;4589861;19;20011;-29
2022/08/21 06:01:09;;;;;;;106.57;33.30;;;24.60;99.90;;;;;;4589433;19;20010;-30
2022/08/21 06:02:40;;;;;;;91.70;30.27;;;24.60;99.90;;;;;;4590088;19;20031;-29
2022/08/21 06:04:12;;;;;;;44.17;17.77;;;24.60;99.90;;;;;;4589992;19;20026;-31
2022/08/21 06:05:43;;;;;;;42.67;16.67;;;24.60;99.90;;;;;;4587716;19;20035;-31
2022/08/21 06:07:14;;;;;;;36.53;15.40;;;24.50;99.90;;;;;;4589680;19;20045;-30
2022/08/21 06:08:45;;;;;;;22.15;11.60;;;24.50;99.90;;;;;;4590751;19;20014;-31
2022/08/21 06:10:17;;;;;;;23.80;12.85;;;24.50;99.90;;;;;;4590517;19;20039;-30
2022/08/21 06:11:48;;;;;;;20.55;12.07;;;24.50;99.90;;;;;;4589472;19;20010;-30
2022/08/21 06:13:19;;;;;;;14.18;9.55;;;24.50;99.90;;;;;;4590168;19;20337;-29
2022/08/21 06:14:51;;;;;;;18.13;11.93;;;24.50;99.90;;;;;;4589343;19;20019;-30
2022/08/21 06:16:23;;;;;;;13.00;10.70;;;24.50;99.90;;;;;;4587910;19;20014;-30
2022/08/21 06:17:54;;;;;;;;;;;24.50;99.90;;;;;;4588536;19;20038;-30
2022/08/21 06:19:26;;;;;;;14.07;10.35;;;24.50;99.90;;;;;;4590129;19;19915;-30
2022/08/21 06:20:57;;;;;;;14.93;10.88;;;24.50;99.90;;;;;;4590162;19;20031;-30
2022/08/21 06:22:28;;;;;;;12.13;9.65;;;24.60;99.90;;;;;;4589734;19;20022;-32
2022/08/21 06:24:00;;;;;;;13.98;10.90;;;24.50;99.90;;;;;;4590528;19;20014;-29
2022/08/21 06:25:31;;;;;;;12.82;10.35;;;24.50;99.90;;;;;;4588139;19;20086;-30
2022/08/21 06:27:08;;;;;;;11.60;9.50;;;24.50;99.90;;;;;;4588586;19;20014;-30
2022/08/21 06:28:39;;;;;;;15.32;11.45;;;24.50;99.90;;;;;;4588981;19;20015;-29
2022/08/21 06:30:11;;;;;;;15.57;10.93;;;24.50;99.90;;;;;;4588386;19;20014;-30
2022/08/21 06:31:42;;;;;;;13.07;11.32;;;24.50;99.90;;;;;;4589143;19;20021;-30
2022/08/21 06:33:13;;;;;;;11.50;8.75;;;24.50;99.90;;;;;;4589788;19;20456;-30
2022/08/21 06:34:44;;;;;;;13.55;10.30;;;24.50;99.90;;;;;;4588433;19;20025;-30
2022/08/21 06:36:15;;;;;;;13.27;9.80;;;24.50;99.90;;;;;;4587454;19;20368;-29
2022/08/21 06:37:46;;;;;;;14.35;11.45;;;24.50;99.90;;;;;;4588368;19;20015;-32
2022/08/21 06:39:17;;;;;;;16.50;11.70;;;24.50;99.90;;;;;;4589520;19;20036;-29
2022/08/21 06:40:48;;;;;;;12.40;10.95;;;24.60;99.90;;;;;;4591180;19;20014;-32
2022/08/21 06:42:20;;;;;;;13.63;10.38;;;24.60;99.90;;;;;;4590465;19;20031;-30
2022/08/21 06:43:51;;;;;;;15.80;10.77;;;24.60;99.90;;;;;;4592586;19;20015;-32
2022/08/21 06:45:22;;;;;;;13.73;10.82;;;24.60;99.90;;;;;;4589865;19;20035;-30
2022/08/21 06:46:53;;;;;;;12.43;9.13;;;24.60;99.90;;;;;;4591020;19;20010;-30
2022/08/21 06:48:24;;;;;;;10.75;9.63;;;24.70;99.90;;;;;;4592410;19;20468;-30
2022/08/21 06:49:56;;;;;;;23.75;21.50;;;24.40;99.90;;;;;;4588388;19;20394;-29
2022/08/21 06:51:27;;;;;;;;;;;22.40;99.90;;;;;;4589017;19;20010;-30
2022/08/21 06:53:07;;;;;;;31.40;28.52;;;21.60;99.90;;;;;;4587583;19;19926;-30
2022/08/21 06:54:42;;;;;;;31.85;28.75;;;21.40;99.90;;;;;;4588245;19;20487;-31
2022/08/21 06:56:13;;;;;;;32.20;28.98;;;21.30;99.90;;;;;;4588508;19;20104;-30
2022/08/21 06:57:44;;;;;;;32.60;29.45;;;21.20;99.90;;;;;;4587826;19;20092;-29
2022/08/21 06:59:15;;;;;;;32.30;29.40;;;21.30;99.90;;;;;;4589159;19;20022;-31
2022/08/21 07:00:48;;;;;;;31.40;28.33;;;21.20;99.90;;;;;;4590062;19;20472;-29
2022/08/21 07:02:19;;;;;;;32.75;29.65;;;21.20;99.90;;;;;;4588959;19;20010;-30
2022/08/21 07:03:50;;;;;;;32.13;29.02;;;21.30;99.90;;;;;;4589731;19;20086;-30
2022/08/21 07:05:21;;;;;;;32.42;29.23;;;21.30;99.90;;;;;;4589254;19;20352;-30
2022/08/21 07:06:53;;;;;;;32.13;29.02;;;21.30;99.90;;;;;;4589592;19;20503;-32
2022/08/21 07:08:25;;;;;;;33.38;30.10;;;21.30;99.90;;;;;;4588500;19;20010;-30
2022/08/21 07:09:56;;;;;;;33.45;30.13;;;21.30;99.90;;;;;;4589435;19;20033;-30
2022/08/21 07:11:27;;;;;;;33.35;30.15;;;21.40;99.90;;;;;;4589715;19;20026;-30
2022/08/21 07:12:58;;;;;;;30.83;27.90;;;21.30;99.90;;;;;;4588612;19;20025;-29
2022/08/21 07:14:30;;;;;;;32.83;29.73;;;21.40;99.90;;;;;;4589141;19;20015;-31
2022/08/21 07:16:01;;;;;;;33.63;30.23;;;21.40;99.90;;;;;;4589776;19;20014;-30
2022/08/21 07:17:32;;;;;;;34.20;30.80;;;21.50;99.90;;;;;;4589733;19;20007;-30
2022/08/21 07:19:03;;;;;;;32.75;29.35;;;21.40;99.90;;;;;;4586907;19;20073;-30
2022/08/21 07:20:34;;;;;;;31.73;28.75;;;21.50;99.90;;;;;;4587071;19;20018;-30
2022/08/21 07:22:06;;;;;;;35.25;31.00;;;21.50;99.90;;;;;;4588415;19;20010;-31
2022/08/21 07:23:42;;;;;;;;;;;21.50;99.90;;;;;;4591240;19;20018;-31
2022/08/21 07:25:13;;;;;;;33.60;30.25;;;21.50;99.90;;;;;;4587857;19;19929;-29
2022/08/21 07:26:44;;;;;;;32.47;29.48;;;21.50;99.90;;;;;;4588945;19;20078;-31
2022/08/21 07:28:15;;;;;;;33.47;29.95;;;21.50;99.90;;;;;;4589983;19;20030;-29
2022/08/21 07:29:46;;;;;;;34.00;30.80;;;21.50;99.90;;;;;;4588259;19;20499;-30
2022/08/21 07:31:22;;;;;;;34.53;31.13;;;21.60;99.90;;;;;;4588753;19;20027;-30
2022/08/21 07:32:54;;;;;;;33.33;30.08;;;21.60;99.90;;;;;;4589371;19;20337;-30
2022/08/21 07:34:25;;;;;;;35.03;31.35;;;21.60;99.90;;;;;;4589995;19;20003;-30
2022/08/21 07:35:56;;;;;;;35.40;32.08;;;21.60;99.90;;;;;;4589565;19;20007;-29
2022/08/21 07:37:27;;;;;;;;;;;21.60;99.90;;;;;;4589922;19;20017;-31
2022/08/21 07:38:59;;;;;;;33.40;30.10;;;21.60;99.90;;;;;;4588254;19;19914;-30
2022/08/21 07:40:30;;;;;;;;;;;21.60;99.90;;;;;;4589302;19;20044;-29
2022/08/21 07:42:03;;;;;;;33.20;29.85;;;21.60;99.90;;;;;;4589936;19;19919;-30
2022/08/21 07:43:34;;;;;;;32.00;29.00;;;21.70;99.90;;;;;;4589260;19;20033;-29
2022/08/21 07:45:06;;;;;;;34.35;30.98;;;21.70;99.90;;;;;;4585289;19;20362;-31
2022/08/21 07:46:37;;;;;;;;;;;21.70;99.90;;;;;;4585886;19;20019;-30
2022/08/21 07:48:08;;;;;;;34.03;30.57;;;21.70;99.90;;;;;;4588434;19;19935;-30
2022/08/21 07:49:39;;;;;;;32.97;29.65;;;21.70;99.90;;;;;;4586477;19;20522;-30
2022/08/21 07:51:14;;;;;;;33.53;30.30;;;21.70;99.90;;;;;;4587212;19;20022;-29